WetterOnline ( https://www.wetteronline.ch )

Wetter aktuell Hamburg

Aktuelles Wetter: Quickborn (17m)

6-stündlich | Neueste Meldungen
Ortszeit Temperatur Wetter
Mo, 17.06. 2:00 11.7° C Nebel
So, 16.06. 20:00 20.1° C wolkig
So, 16.06. 14:00 20.9° C wolkig
So, 16.06. 8:00 15.5° C wolkig
So, 16.06. 2:00 13.9° C wolkig
Sa, 15.06. 20:00 19.2° C leichter Regen
Sa, 15.06. 14:00 18.5° C bedeckt
Sa, 15.06. 8:00 17.0° C Regen
Ortszeit Temperatur Wetter
Mo, 17.06. 6:00 10.9° C Nebel
Mo, 17.06. 5:50 10.9° C Nebel
Mo, 17.06. 5:40 10.7° C Nebel
Mo, 17.06. 5:30 10.6° C Nebel
Mo, 17.06. 5:20 10.6° C Nebel
Mo, 17.06. 5:10 10.7° C Nebel
Mo, 17.06. 5:00 11.0° C Nebel
Mo, 17.06. 4:30 11.2° C Nebel
Mo, 17.06. 4:00 10.6° C Nebel
Mo, 17.06. 3:30 10.4° C Nebel
Mo, 17.06. 3:00 11.0° C Nebel
Ortszeit Relative Feuchte Sichtweite
Mo, 17.06. 2:00 98% 100 m
So, 16.06. 20:00 71% 45 km
So, 16.06. 14:00 55% 50 km
So, 16.06. 8:00 78% 40 km
So, 16.06. 2:00 86% 40 km
Sa, 15.06. 20:00 81% 27 km
Sa, 15.06. 14:00 86% 35 km
Sa, 15.06. 8:00 93% 7 km
Ortszeit Relative Feuchte Sichtweite
Mo, 17.06. 6:00 99% 0.2 km
Mo, 17.06. 5:50 99% -
Mo, 17.06. 5:40 99% -
Mo, 17.06. 5:30 99% 0.2 km
Mo, 17.06. 5:20 99% -
Mo, 17.06. 5:10 99% -
Mo, 17.06. 5:00 99% <100 m
Mo, 17.06. 4:30 99% 100 m
Mo, 17.06. 4:00 100% 100 m
Mo, 17.06. 3:30 99% 100 m
Mo, 17.06. 3:00 99% 100 m
Ortszeit Niederschlagsmenge Niederschlagsart
Mo, 17.06. 2:00 2 l/m2 in 6 Std. Regen
So, 16.06. 20:00 0.1 l/m2 in 12 Std. Regen
So, 16.06. 14:00 0.0 l/m2 in 6 Std. -
So, 16.06. 8:00 0.2 l/m2 in 12 Std. -
So, 16.06. 2:00 0.2 l/m2 in 6 Std. Regen
Sa, 15.06. 20:00 8 l/m2 in 12 Std. Regen
Sa, 15.06. 14:00 8 l/m2 in 6 Std. Regenschauer
Sa, 15.06. 8:00 3 l/m2 in 12 Std. Regen
Ortszeit Niederschlagsmenge Niederschlagsart
Mo, 17.06. 6:00 0.1 l/m2 in 1 Std. -
Mo, 17.06. 5:50 keine Meldung -
Mo, 17.06. 5:40 keine Meldung -
Mo, 17.06. 5:30 0.1 l/m2 in 1 Std. -
Mo, 17.06. 5:20 keine Meldung -
Mo, 17.06. 5:10 keine Meldung -
Mo, 17.06. 5:00 0.0 l/m2 in 1 Std. -
Mo, 17.06. 4:30 0.0 l/m2 in 1 Std. -
Mo, 17.06. 4:00 0.0 l/m2 in 1 Std. -
Mo, 17.06. 3:30 0.0 l/m2 in 1 Std. -
Mo, 17.06. 3:00 0.0 l/m2 in 1 Std. -
Ortszeit Stärke Spitze Richtung
km/h Bft. km/h Grad Sektor
Mo, 17.06. 2:00 2 1 33 210° SW
So, 16.06. 20:00 4 1 18 360° N
So, 16.06. 14:00 9 2 20 190° S
So, 16.06. 8:00 4 1 18 250° W
So, 16.06. 2:00 6 1 48 300° NW
Sa, 15.06. 20:00 11 2 40 230° SW
Sa, 15.06. 14:00 7 2 58 90° O
Sa, 15.06. 8:00 11 2 18 60° NO
Ortszeit Stärke Spitze Richtung
km/h Bft. km/h Grad Sektor
Mo, 17.06. 6:00 0 0 4 - -
Mo, 17.06. 5:50 0 0 - 160° S
Mo, 17.06. 5:40 2 1 - 150° SO
Mo, 17.06. 5:30 2 1 4 160° S
Mo, 17.06. 5:20 2 1 - 160° S
Mo, 17.06. 5:10 4 1 - 150° SO
Mo, 17.06. 5:00 4 1 4 160° S
Mo, 17.06. 4:30 4 1 4 170° S
Mo, 17.06. 4:00 4 1 4 140° SO
Mo, 17.06. 3:30 4 1 4 170° S
Mo, 17.06. 3:00 4 1 4 130° SO
Ortszeit Untergrenze Bedeckung Gattung
total tief tief mittel hoch
Mo, 17.06. 2:00 <30 m 6/8 0/8 - - -
So, 16.06. 20:00 1800 m 8/8 1/8 - - -
So, 16.06. 14:00 1260 m 7/8 3/8 - - -
So, 16.06. 8:00 6900 m 8/8 2/8 - - -
So, 16.06. 2:00 630 m 6/8 6/8 - - -
Sa, 15.06. 20:00 630 m 8/8 8/8 - - -
Sa, 15.06. 14:00 390 m 8/8 8/8 - - -
Sa, 15.06. 8:00 30 m 8/8 5/8 - - -
Ortszeit Bedeckungsgrad in Achtel und Wolkenuntergrenze
Mo, 17.06. 6:00 8(<30m)
Mo, 17.06. 5:50 8(<30m)
Mo, 17.06. 5:40 8(<30m)
Mo, 17.06. 5:30 8(<30m)
Mo, 17.06. 5:20 8(<30m)
Mo, 17.06. 5:10 8(<30m)
Mo, 17.06. 5:00 8(<30m)
Mo, 17.06. 4:30 8(<30m)
Mo, 17.06. 4:00 8(<30m)
Mo, 17.06. 3:30 8(<30m)
Mo, 17.06. 3:00 8(<30m)
Ortszeit Luftdruck NN (hPa) Tendenz (hPa in 3 Std.)
Mo, 17.06. 2:00 1022 + 0,7
So, 16.06. 20:00 1020 - 0,1
So, 16.06. 14:00 1020 + 0,7
So, 16.06. 8:00 1018 + 0,9
So, 16.06. 2:00 1017 + 1,7
Sa, 15.06. 20:00 1013 + 2,0
Sa, 15.06. 14:00 1009 + 1,1
Sa, 15.06. 8:00 1010 - 1,3
Ortszeit Luftdruck NN (hPa) Tendenz (hPa in 3 Std.)
Mo, 17.06. 6:00 1022 + 0,1
Mo, 17.06. 5:50 1022 keine Meldung
Mo, 17.06. 5:40 1022 keine Meldung
Mo, 17.06. 5:30 1022 + 0,2
Mo, 17.06. 5:20 1022 keine Meldung
Mo, 17.06. 5:10 1022 keine Meldung
Mo, 17.06. 5:00 1022 + 0,4
Mo, 17.06. 4:30 1022 + 0,3
Mo, 17.06. 4:00 1022 + 0,3
Mo, 17.06. 3:30 1022 + 0,4
Mo, 17.06. 3:00 1022 + 0,2
Ortszeit Schneehöhe (cm)
Mo, 17.06. 2:00 -
So, 16.06. 20:00 -
So, 16.06. 14:00 -
So, 16.06. 8:00 -
So, 16.06. 2:00 -
Sa, 15.06. 20:00 -
Sa, 15.06. 14:00 -
Sa, 15.06. 8:00 -
Ortszeit Schneehöhe (cm)
Mo, 17.06. 6:00 -
Mo, 17.06. 5:50 -
Mo, 17.06. 5:40 -
Mo, 17.06. 5:30 -
Mo, 17.06. 5:20 -
Mo, 17.06. 5:10 -
Mo, 17.06. 5:00 -
Mo, 17.06. 4:30 -
Mo, 17.06. 4:00 -
Mo, 17.06. 3:30 -
Mo, 17.06. 3:00 -
Link zu dieser Seite / Seite empfehlen

Das Wetter in ...